Time;durP1;ratioP1;P1;durP2;ratioP2;P2;SDS_P1;SDS_P2;PMS_P1;PMS_P2;Temp;Humidity;BMP_temperature;BMP_pressure;BME280_temperature;BME280_humidity;BME280_pressure;Samples;Min_cycle;Max_cycle;Signal;HPM_P1;HPM_P2
2022/08/16 00:00:53;;;;;;;9.32;4.90;;;;;;;;;;4919114;29;20087;-76
2022/08/16 00:03:20;;;;;;;6.47;4.00;;;;;;;;;;4918769;29;20028;-77
2022/08/16 00:05:46;;;;;;;6.80;4.63;;;;;;;;;;4901761;29;20064;-76
2022/08/16 00:08:12;;;;;;;8.80;4.55;;;;;;;;;;4901565;29;20111;-76
2022/08/16 00:10:38;;;;;;;7.13;4.47;;;;;;;;;;4901171;29;20087;-77
2022/08/16 00:13:06;;;;;;;8.32;4.32;;;;;;;;;;4918755;29;20060;-77
2022/08/16 00:15:34;;;;;;;7.20;4.20;;;;;;;;;;4901609;29;20063;-76
2022/08/16 00:18:01;;;;;;;8.38;4.13;;;;;;;;;;4901501;29;20069;-76
2022/08/16 00:20:27;;;;;;;8.13;4.38;;;;;;;;;;4901320;29;20414;-76
2022/08/16 00:22:53;;;;;;;10.73;4.65;;;;;;;;;;4901149;29;20028;-76
2022/08/16 00:25:20;;;;;;;8.18;4.82;;;;;;;;;;4901361;29;20167;-74
2022/08/16 00:27:48;;;;;;;6.30;4.03;;;;;;;;;;4912783;29;20038;-72
2022/08/16 00:30:15;;;;;;;7.50;4.78;;;;;;;;;;4926681;29;20030;-76
2022/08/16 00:32:44;;;;;;;6.85;4.22;;;;;;;;;;4920711;29;20028;-74
2022/08/16 00:35:13;;;;;;;8.15;4.60;;;;;;;;;;4901514;29;20044;-76
2022/08/16 00:37:39;;;;;;;9.98;4.22;;;;;;;;;;4901200;29;20499;-76
2022/08/16 00:40:07;;;;;;;9.35;4.35;;;;;;;;;;4901615;29;20063;-76
2022/08/16 00:42:33;;;;;;;7.32;4.25;;;;;;;;;;4900959;29;20032;-76
2022/08/16 00:45:01;;;;;;;7.32;5.05;;;;;;;;;;4901068;29;20374;-77
2022/08/16 00:47:27;;;;;;;12.02;4.65;;;;;;;;;;4900993;29;20393;-76
2022/08/16 00:49:54;;;;;;;9.38;4.68;;;;;;;;;;4917769;29;20032;-76
2022/08/16 00:52:20;;;;;;;9.80;4.53;;;;;;;;;;4900768;29;20088;-78
2022/08/16 00:54:46;;;;;;;8.35;4.78;;;;;;;;;;4900716;29;20132;-75
2022/08/16 00:57:12;;;;;;;11.63;5.07;;;;;;;;;;4900496;29;20052;-76
2022/08/16 00:59:39;;;;;;;8.57;4.70;;;;;;;;;;4900800;29;20122;-76
2022/08/16 01:02:07;;;;;;;7.63;4.75;;;;;;;;;;4900697;29;20040;-76
2022/08/16 01:04:34;;;;;;;8.30;4.80;;;;;;;;;;4900539;29;20038;-75
2022/08/16 01:07:01;;;;;;;7.55;4.40;;;;;;;;;;4900616;29;20087;-76
2022/08/16 01:09:28;;;;;;;6.65;4.55;;;;;;;;;;4900588;29;20036;-76
2022/08/16 01:11:55;;;;;;;6.28;4.30;;;;;;;;;;4918077;29;20441;-76
2022/08/16 01:14:23;;;;;;;12.48;4.75;;;;;;;;;;4900318;29;20131;-77
2022/08/16 01:16:51;;;;;;;9.85;4.55;;;;;;;;;;4900361;29;20135;-76
2022/08/16 01:19:21;;;;;;;8.10;4.60;;;;;;;;;;4917995;29;20024;-75
2022/08/16 01:21:50;;;;;;;8.90;4.05;;;;;;;;;;4901153;29;20091;-76
2022/08/16 01:24:16;;;;;;;8.98;4.78;;;;;;;;;;4900295;29;20126;-76
2022/08/16 01:26:43;;;;;;;7.88;4.47;;;;;;;;;;4900484;29;20035;-76
2022/08/16 01:29:13;;;;;;;10.77;4.60;;;;;;;;;;4900287;29;20370;-75
2022/08/16 01:31:39;;;;;;;7.85;5.00;;;;;;;;;;4900276;29;20035;-74
2022/08/16 01:34:05;;;;;;;8.55;5.07;;;;;;;;;;4899954;29;20143;-77
2022/08/16 01:36:32;;;;;;;9.35;4.78;;;;;;;;;;4899932;29;20032;-76
2022/08/16 01:38:58;;;;;;;7.80;4.68;;;;;;;;;;4900326;29;20028;-77
2022/08/16 01:41:28;;;;;;;8.15;4.78;;;;;;;;;;4900200;29;20536;-76
2022/08/16 01:43:54;;;;;;;8.85;4.18;;;;;;;;;;4917198;29;20027;-76
2022/08/16 01:46:24;;;;;;;6.78;4.65;;;;;;;;;;4900015;29;20043;-77
2022/08/16 01:48:54;;;;;;;8.13;5.07;;;;;;;;;;4900197;29;20024;-77
2022/08/16 01:51:21;;;;;;;11.13;4.90;;;;;;;;;;4917070;29;20031;-75
2022/08/16 01:53:47;;;;;;;8.63;4.78;;;;;;;;;;4917012;29;20043;-76
2022/08/16 01:56:13;;;;;;;8.77;5.10;;;;;;;;;;4917018;29;20063;-76
2022/08/16 01:58:40;;;;;;;9.88;4.53;;;;;;;;;;4902060;29;20437;-76
2022/08/16 02:01:06;;;;;;;7.40;5.15;;;;;;;;;;4903947;29;20048;-75
2022/08/16 02:03:32;;;;;;;10.07;5.40;;;;;;;;;;4904284;29;20497;-75
2022/08/16 02:05:59;;;;;;;6.60;4.40;;;;;;;;;;4903799;29;20111;-76
2022/08/16 02:08:25;;;;;;;10.05;5.13;;;;;;;;;;4920761;29;20028;-75
2022/08/16 02:10:53;;;;;;;8.60;4.78;;;;;;;;;;4903764;29;20083;-77
2022/08/16 02:13:19;;;;;;;6.70;4.63;;;;;;;;;;4903727;29;20120;-76
2022/08/16 02:15:45;;;;;;;7.35;4.72;;;;;;;;;;4903605;29;20042;-76
2022/08/16 02:18:12;;;;;;;7.78;4.88;;;;;;;;;;4903567;29;20393;-76
2022/08/16 02:20:39;;;;;;;7.90;4.45;;;;;;;;;;4903533;29;20389;-76
2022/08/16 02:23:06;;;;;;;11.27;5.40;;;;;;;;;;4903542;29;20115;-76
2022/08/16 02:25:33;;;;;;;8.55;4.35;;;;;;;;;;4921026;29;20039;-76
2022/08/16 02:27:59;;;;;;;7.00;4.50;;;;;;;;;;4903505;29;20392;-76
2022/08/16 02:30:27;;;;;;;8.77;4.82;;;;;;;;;;4903280;29;20496;-75
2022/08/16 02:32:53;;;;;;;11.18;5.57;;;;;;;;;;4903424;29;20028;-76
2022/08/16 02:35:21;;;;;;;8.25;5.43;;;;;;;;;;4903383;29;20040;-77
2022/08/16 02:37:47;;;;;;;6.45;4.32;;;;;;;;;;4920245;29;20020;-75
2022/08/16 02:40:15;;;;;;;7.55;4.60;;;;;;;;;;4903098;29;20039;-75
2022/08/16 02:42:41;;;;;;;9.77;4.70;;;;;;;;;;4903323;29;20107;-76
2022/08/16 02:45:08;;;;;;;7.45;4.53;;;;;;;;;;4903115;29;20481;-77
2022/08/16 02:47:34;;;;;;;12.32;4.63;;;;;;;;;;4903033;29;20036;-77
2022/08/16 02:50:00;;;;;;;8.45;4.97;;;;;;;;;;4902971;29;20080;-76
2022/08/16 02:52:26;;;;;;;6.85;4.63;;;;;;;;;;4919888;29;20036;-76
2022/08/16 02:54:53;;;;;;;7.60;5.00;;;;;;;;;;4902865;29;20036;-76
2022/08/16 02:57:19;;;;;;;6.47;4.20;;;;;;;;;;4902672;29;20052;-77
2022/08/16 02:59:45;;;;;;;8.98;4.78;;;;;;;;;;4919820;29;20489;-76
2022/08/16 03:02:12;;;;;;;9.52;5.13;;;;;;;;;;4902900;29;20038;-77
2022/08/16 03:04:38;;;;;;;7.05;4.47;;;;;;;;;;4902716;29;20071;-76
2022/08/16 03:07:05;;;;;;;7.63;3.30;;;;;;;;;;4919608;29;20028;-76
2022/08/16 03:09:31;;;;;;;7.68;3.70;;;;;;;;;;4901468;29;20055;-75
2022/08/16 03:11:57;;;;;;;6.40;3.53;;;;;;;;;;4902596;29;20028;-76
2022/08/16 03:14:24;;;;;;;6.18;3.42;;;;;;;;;;4919570;29;20051;-76
2022/08/16 03:16:50;;;;;;;8.07;3.10;;;;;;;;;;4902830;29;20475;-76
2022/08/16 03:19:16;;;;;;;5.72;3.13;;;;;;;;;;4902744;29;20442;-75
2022/08/16 03:21:42;;;;;;;5.95;2.85;;;;;;;;;;4920058;29;20028;-77
2022/08/16 03:24:09;;;;;;;6.45;3.05;;;;;;;;;;4902463;29;20024;-77
2022/08/16 03:26:35;;;;;;;5.50;3.08;;;;;;;;;;4902101;29;20032;-75
2022/08/16 03:29:01;;;;;;;7.50;3.08;;;;;;;;;;4919876;29;20035;-76
2022/08/16 03:31:27;;;;;;;5.35;3.03;;;;;;;;;;4902836;29;20473;-77
2022/08/16 03:33:53;;;;;;;5.57;3.10;;;;;;;;;;4919337;29;20032;-76
2022/08/16 03:36:19;;;;;;;4.07;2.45;;;;;;;;;;4902198;29;20075;-76
2022/08/16 03:38:46;;;;;;;4.80;2.67;;;;;;;;;;4919174;29;20607;-76
2022/08/16 03:41:12;;;;;;;4.75;2.65;;;;;;;;;;4901843;29;20469;-75
2022/08/16 03:43:38;;;;;;;4.78;2.80;;;;;;;;;;4918850;29;20023;-77
2022/08/16 03:46:05;;;;;;;5.25;2.72;;;;;;;;;;4919196;29;20115;-75
2022/08/16 03:48:33;;;;;;;4.38;2.65;;;;;;;;;;4902044;29;20034;-76
2022/08/16 03:51:00;;;;;;;4.47;2.67;;;;;;;;;;4902034;29;20032;-75
2022/08/16 03:53:27;;;;;;;5.90;2.60;;;;;;;;;;4901861;29;20090;-77
2022/08/16 03:55:54;;;;;;;4.63;2.80;;;;;;;;;;4901974;29;20079;-76
2022/08/16 03:58:20;;;;;;;7.05;2.88;;;;;;;;;;4918604;29;20056;-75
2022/08/16 04:00:48;;;;;;;5.43;2.33;;;;;;;;;;4901722;29;20506;-76
2022/08/16 04:03:14;;;;;;;6.50;3.03;;;;;;;;;;4901740;29;20027;-75
2022/08/16 04:05:42;;;;;;;7.38;2.65;;;;;;;;;;4918460;29;20036;-75
2022/08/16 04:08:09;;;;;;;6.22;3.00;;;;;;;;;;4901621;29;20027;-76
2022/08/16 04:10:35;;;;;;;4.93;2.20;;;;;;;;;;4919290;29;20064;-74
2022/08/16 04:13:01;;;;;;;5.00;2.55;;;;;;;;;;4918788;29;20024;-76
2022/08/16 04:15:28;;;;;;;4.65;2.30;;;;;;;;;;4918445;29;20043;-76
2022/08/16 04:17:54;;;;;;;5.65;2.50;;;;;;;;;;4918534;29;20052;-75
2022/08/16 04:20:21;;;;;;;5.93;2.47;;;;;;;;;;4901127;29;20028;-75
2022/08/16 04:22:47;;;;;;;4.80;2.70;;;;;;;;;;4901364;29;20111;-75
2022/08/16 04:25:13;;;;;;;7.70;2.55;;;;;;;;;;4918352;29;20557;-76
2022/08/16 04:27:40;;;;;;;3.72;2.22;;;;;;;;;;4901400;29;20032;-75
2022/08/16 04:30:08;;;;;;;6.28;2.30;;;;;;;;;;4901217;29;20492;-75
2022/08/16 04:32:35;;;;;;;5.07;2.40;;;;;;;;;;4901234;29;20028;-76
2022/08/16 04:35:01;;;;;;;4.10;2.35;;;;;;;;;;4900965;29;20047;-75
2022/08/16 04:37:27;;;;;;;5.43;2.35;;;;;;;;;;4901075;29;20487;-74
2022/08/16 04:39:53;;;;;;;3.45;1.98;;;;;;;;;;4918150;29;20039;-73
2022/08/16 04:42:19;;;;;;;5.00;2.10;;;;;;;;;;4917996;29;20024;-73
2022/08/16 04:44:45;;;;;;;4.22;2.10;;;;;;;;;;4900884;29;20396;-74
2022/08/16 04:47:12;;;;;;;3.35;1.98;;;;;;;;;;4917628;29;20028;-73
2022/08/16 04:49:38;;;;;;;3.10;1.92;;;;;;;;;;4918125;29;20032;-82
2022/08/16 04:52:04;;;;;;;6.20;2.03;;;;;;;;;;4902134;29;20028;-83
2022/08/16 04:54:31;;;;;;;4.30;2.33;;;;;;;;;;4901517;29;20043;-80
2022/08/16 04:56:57;;;;;;;4.45;2.10;;;;;;;;;;4901239;29;20044;-74
2022/08/16 04:59:23;;;;;;;2.90;1.73;;;;;;;;;;4900774;29;20114;-76
2022/08/16 05:01:55;;;;;;;3.10;1.67;;;;;;;;;;4900814;29;20032;-74
2022/08/16 05:04:21;;;;;;;8.25;1.80;;;;;;;;;;4900662;29;20024;-74
2022/08/16 05:06:47;;;;;;;3.25;1.92;;;;;;;;;;4900325;29;20028;-73
2022/08/16 05:09:13;;;;;;;2.35;1.55;;;;;;;;;;4916558;29;20083;-74
2022/08/16 05:11:40;;;;;;;4.40;1.77;;;;;;;;;;4899716;29;20032;-75
2022/08/16 05:14:06;;;;;;;3.97;2.08;;;;;;;;;;4900511;29;20040;-76
2022/08/16 05:16:32;;;;;;;6.55;1.77;;;;;;;;;;4900420;29;20051;-75
2022/08/16 05:19:01;;;;;;;6.32;1.70;;;;;;;;;;4901335;29;20087;-73
2022/08/16 05:21:27;;;;;;;4.05;2.03;;;;;;;;;;4917467;29;20024;-74
2022/08/16 05:23:54;;;;;;;5.95;1.50;;;;;;;;;;4917515;29;20095;-78
2022/08/16 05:26:20;;;;;;;3.30;1.52;;;;;;;;;;4900502;29;20036;-77
2022/08/16 05:28:47;;;;;;;4.30;1.55;;;;;;;;;;4900374;29;20387;-76
2022/08/16 05:31:15;;;;;;;3.90;1.95;;;;;;;;;;4900334;29;20370;-78
2022/08/16 05:33:41;;;;;;;3.95;1.92;;;;;;;;;;4899501;29;20533;-75
2022/08/16 05:36:07;;;;;;;3.45;1.85;;;;;;;;;;4900691;29;20040;-77
2022/08/16 05:38:33;;;;;;;3.25;1.40;;;;;;;;;;4900381;29;20513;-76
2022/08/16 05:41:00;;;;;;;3.42;1.65;;;;;;;;;;4899991;29;20036;-76
2022/08/16 05:43:27;;;;;;;2.72;1.50;;;;;;;;;;4900181;29;20107;-76
2022/08/16 05:45:54;;;;;;;3.90;1.60;;;;;;;;;;4917768;29;20430;-76
2022/08/16 05:48:20;;;;;;;4.63;1.48;;;;;;;;;;4917171;29;20095;-75
2022/08/16 05:50:46;;;;;;;3.47;1.75;;;;;;;;;;4917254;29;20036;-76
2022/08/16 05:53:13;;;;;;;2.55;1.52;;;;;;;;;;4900132;29;20095;-77
2022/08/16 05:55:39;;;;;;;3.05;1.50;;;;;;;;;;4917085;29;20032;-76
2022/08/16 05:58:05;;;;;;;2.40;1.20;;;;;;;;;;4900012;29;20059;-76
2022/08/16 06:00:31;;;;;;;3.97;1.40;;;;;;;;;;4916941;29;20470;-76
2022/08/16 06:02:57;;;;;;;3.15;1.50;;;;;;;;;;4917043;29;20032;-77
2022/08/16 06:05:24;;;;;;;2.85;1.45;;;;;;;;;;4916889;29;20513;-76
2022/08/16 06:07:51;;;;;;;7.30;1.60;;;;;;;;;;4916823;29;20387;-75
2022/08/16 06:10:18;;;;;;;3.20;1.27;;;;;;;;;;4917038;29;20107;-77
2022/08/16 06:12:44;;;;;;;3.33;1.30;;;;;;;;;;4900069;29;20069;-77
2022/08/16 06:15:15;;;;;;;4.50;1.60;;;;;;;;;;4899993;29;20036;-77
2022/08/16 06:17:41;;;;;;;6.30;1.88;;;;;;;;;;4917450;29;20476;-78
2022/08/16 06:20:08;;;;;;;2.70;1.73;;;;;;;;;;4899917;29;20040;-76
2022/08/16 06:22:37;;;;;;;4.05;1.58;;;;;;;;;;4900118;29;20032;-77
2022/08/16 06:25:03;;;;;;;2.85;1.67;;;;;;;;;;4899900;29;20035;-76
2022/08/16 06:27:29;;;;;;;2.85;1.42;;;;;;;;;;4899828;29;20031;-76
2022/08/16 06:29:56;;;;;;;2.65;1.60;;;;;;;;;;4916708;29;20040;-75
2022/08/16 06:32:22;;;;;;;6.03;1.30;;;;;;;;;;4916961;29;20036;-75
2022/08/16 06:34:48;;;;;;;4.22;1.42;;;;;;;;;;4899831;29;20040;-77
2022/08/16 06:37:14;;;;;;;2.13;1.35;;;;;;;;;;4899823;29;20079;-75
2022/08/16 06:39:41;;;;;;;2.35;1.45;;;;;;;;;;4900464;29;20123;-76
2022/08/16 06:42:07;;;;;;;4.63;1.50;;;;;;;;;;4917572;29;20489;-75
2022/08/16 06:44:33;;;;;;;4.15;1.70;;;;;;;;;;4918554;29;20496;-76
2022/08/16 06:46:59;;;;;;;3.13;1.70;;;;;;;;;;4903257;29;20064;-78
2022/08/16 06:49:25;;;;;;;2.40;1.70;;;;;;;;;;4920367;29;20091;-77
2022/08/16 06:51:52;;;;;;;6.72;1.30;;;;;;;;;;4920236;29;20056;-76
2022/08/16 06:54:18;;;;;;;2.70;1.48;;;;;;;;;;4902941;29;20035;-77
2022/08/16 06:56:44;;;;;;;4.18;1.45;;;;;;;;;;4903102;29;20501;-73
2022/08/16 06:59:10;;;;;;;5.35;1.65;;;;;;;;;;4903058;29;20047;-74
2022/08/16 07:01:36;;;;;;;3.97;1.80;;;;;;;;;;4902908;29;20038;-79
2022/08/16 07:04:03;;;;;;;3.40;1.60;;;;;;;;;;4919839;29;20028;-77
2022/08/16 07:06:30;;;;;;;3.85;1.55;;;;;;;;;;4938514;29;20119;-78
2022/08/16 07:08:56;;;;;;;1.90;1.30;;;;;;;;;;4921658;29;20027;-76
2022/08/16 07:11:24;;;;;;;2.03;1.25;;;;;;;;;;4921537;29;20028;-78
2022/08/16 07:13:51;;;;;;;3.70;1.40;;;;;;;;;;4938591;29;20107;-77
2022/08/16 07:16:17;;;;;;;4.07;1.70;;;;;;;;;;4921563;29;20048;-76
2022/08/16 07:18:44;;;;;;;2.70;1.60;;;;;;;;;;4938606;29;20066;-76
2022/08/16 07:21:11;;;;;;;3.55;1.60;;;;;;;;;;4938404;29;20055;-75
2022/08/16 07:23:38;;;;;;;2.10;1.33;;;;;;;;;;4938461;29;20024;-75
2022/08/16 07:26:06;;;;;;;3.35;1.20;;;;;;;;;;4938468;29;20034;-75
2022/08/16 07:28:32;;;;;;;2.97;1.58;;;;;;;;;;4921352;29;20024;-76
2022/08/16 07:31:00;;;;;;;2.83;1.50;;;;;;;;;;4921634;29;20027;-75
2022/08/16 07:33:27;;;;;;;3.38;1.70;;;;;;;;;;4921136;29;20028;-77
2022/08/16 07:35:53;;;;;;;2.95;1.60;;;;;;;;;;4921239;29;20071;-75
2022/08/16 07:38:19;;;;;;;2.25;1.25;;;;;;;;;;4920781;29;20031;-74
2022/08/16 07:40:45;;;;;;;2.30;1.38;;;;;;;;;;4924596;29;20016;-76
2022/08/16 07:43:11;;;;;;;3.25;1.30;;;;;;;;;;4921270;29;20031;-74
2022/08/16 07:45:38;;;;;;;6.22;1.45;;;;;;;;;;4920210;29;20082;-74
2022/08/16 07:48:04;;;;;;;2.67;1.40;;;;;;;;;;4936235;29;21451;-74
2022/08/16 07:50:30;;;;;;;3.50;1.60;;;;;;;;;;4933072;29;20110;-72
2022/08/16 07:52:57;;;;;;;2.17;1.20;;;;;;;;;;4920874;29;20034;-78
2022/08/16 07:55:23;;;;;;;3.35;1.40;;;;;;;;;;4920379;29;20063;-78
2022/08/16 07:57:49;;;;;;;2.85;1.60;;;;;;;;;;4920666;29;20538;-79
2022/08/16 08:00:16;;;;;;;2.75;1.40;;;;;;;;;;4917823;29;20080;-79
2022/08/16 08:02:42;;;;;;;3.15;1.20;;;;;;;;;;4914728;29;20032;-76
2022/08/16 08:05:09;;;;;;;2.78;1.40;;;;;;;;;;4938213;29;20083;-79
2022/08/16 08:07:35;;;;;;;2.25;1.17;;;;;;;;;;4920659;29;20032;-75
2022/08/16 08:10:01;;;;;;;3.75;1.58;;;;;;;;;;4937773;29;20098;-79
2022/08/16 08:12:27;;;;;;;2.55;1.33;;;;;;;;;;4920559;29;20428;-79
2022/08/16 08:14:54;;;;;;;4.82;1.50;;;;;;;;;;4916982;29;20094;-71
2022/08/16 08:17:21;;;;;;;4.38;1.50;;;;;;;;;;4937550;29;20107;-79
2022/08/16 08:19:47;;;;;;;2.55;1.55;;;;;;;;;;4920358;29;20091;-74
2022/08/16 08:22:14;;;;;;;4.10;1.30;;;;;;;;;;4937287;29;20082;-80
2022/08/16 08:24:40;;;;;;;3.35;1.48;;;;;;;;;;4921230;29;20040;-74
2022/08/16 08:27:07;;;;;;;2.97;1.23;;;;;;;;;;4951029;29;20035;-73
2022/08/16 08:29:34;;;;;;;3.35;1.55;;;;;;;;;;4929311;29;20039;-79
2022/08/16 08:32:01;;;;;;;3.85;1.58;;;;;;;;;;4911396;29;20032;-77
2022/08/16 08:34:27;;;;;;;2.30;1.60;;;;;;;;;;4923209;29;20120;-78
2022/08/16 08:36:57;;;;;;;2.40;1.65;;;;;;;;;;4901620;29;20366;-80
2022/08/16 08:39:24;;;;;;;4.18;1.63;;;;;;;;;;4903098;29;20036;-80
2022/08/16 08:41:51;;;;;;;1.98;1.30;;;;;;;;;;4911578;29;20031;-76
2022/08/16 08:44:20;;;;;;;2.15;1.30;;;;;;;;;;4925863;29;20155;-77
2022/08/16 08:46:46;;;;;;;2.15;1.38;;;;;;;;;;4927519;29;20467;-75
2022/08/16 08:49:12;;;;;;;2.50;1.30;;;;;;;;;;4909859;29;20021;-74
2022/08/16 08:51:39;;;;;;;1.80;1.20;;;;;;;;;;4921868;29;20035;-74
2022/08/16 08:54:07;;;;;;;2.80;1.38;;;;;;;;;;4910321;29;20536;-75
2022/08/16 08:56:36;;;;;;;2.00;1.40;;;;;;;;;;4927435;29;20019;-73
2022/08/16 08:59:02;;;;;;;2.40;1.40;;;;;;;;;;4919787;29;20044;-72
2022/08/16 09:01:31;;;;;;;1.67;1.13;;;;;;;;;;4919602;29;20052;-77
2022/08/16 09:03:58;;;;;;;2.28;1.48;;;;;;;;;;4925437;29;20044;-74
2022/08/16 09:06:24;;;;;;;2.03;1.25;;;;;;;;;;4900590;29;20091;-76
2022/08/16 09:08:51;;;;;;;3.10;1.40;;;;;;;;;;4916880;29;20107;-73
2022/08/16 09:11:17;;;;;;;2.85;1.30;;;;;;;;;;4900564;29;20036;-74
2022/08/16 09:13:44;;;;;;;2.80;1.17;;;;;;;;;;4900620;29;20032;-74
2022/08/16 09:16:10;;;;;;;3.35;1.38;;;;;;;;;;4900644;29;20028;-77
2022/08/16 09:18:37;;;;;;;3.25;1.35;;;;;;;;;;4900556;29;20036;-74
2022/08/16 09:21:05;;;;;;;1.77;1.17;;;;;;;;;;4900565;29;20056;-74
2022/08/16 09:23:34;;;;;;;1.67;0.98;;;;;;;;;;4900468;29;20056;-77
2022/08/16 09:26:00;;;;;;;4.25;1.20;;;;;;;;;;4900642;29;20038;-75
2022/08/16 09:28:27;;;;;;;3.90;1.30;;;;;;;;;;4900426;29;20035;-74
2022/08/16 09:30:54;;;;;;;2.00;1.25;;;;;;;;;;4900339;29;20446;-75
2022/08/16 09:33:20;;;;;;;2.38;1.33;;;;;;;;;;4900385;29;20397;-75
2022/08/16 09:35:47;;;;;;;4.25;1.13;;;;;;;;;;4900384;29;20039;-75
2022/08/16 09:38:13;;;;;;;2.05;1.33;;;;;;;;;;4900264;29;20068;-76
2022/08/16 09:40:45;;;;;;;2.75;1.42;;;;;;;;;;4917677;29;20028;-77
2022/08/16 09:43:12;;;;;;;2.03;1.20;;;;;;;;;;4917191;29;20079;-74
2022/08/16 09:45:40;;;;;;;1.73;1.20;;;;;;;;;;4900078;29;20036;-75
2022/08/16 09:48:07;;;;;;;2.72;1.08;;;;;;;;;;4917247;29;20028;-77
2022/08/16 09:50:35;;;;;;;2.17;1.05;;;;;;;;;;4899971;29;20036;-75
2022/08/16 09:53:02;;;;;;;1.92;1.13;;;;;;;;;;4917229;29;20028;-77
2022/08/16 09:55:28;;;;;;;2.65;1.15;;;;;;;;;;4917214;29;20473;-74
2022/08/16 09:57:54;;;;;;;3.45;1.40;;;;;;;;;;4899938;29;20059;-77
2022/08/16 10:00:21;;;;;;;3.03;1.10;;;;;;;;;;4900730;29;20039;-76
2022/08/16 10:02:47;;;;;;;1.67;1.02;;;;;;;;;;4917078;29;20028;-77
2022/08/16 10:05:13;;;;;;;2.05;0.90;;;;;;;;;;4899947;29;20051;-77
2022/08/16 10:07:39;;;;;;;2.72;1.15;;;;;;;;;;4899671;29;20024;-76
2022/08/16 10:10:06;;;;;;;2.53;1.30;;;;;;;;;;4917472;29;20034;-76
2022/08/16 10:13:17;;;;;;;2.17;1.10;;;;;;;;;;4900000;29;20067;-77
2022/08/16 10:15:19;;;;;;;1.67;1.10;;;;;;;;;;4903541;29;20032;-75
2022/08/16 10:17:47;;;;;;;3.78;1.45;;;;;;;;;;4900179;29;20032;-83
2022/08/16 10:20:13;;;;;;;2.60;1.23;;;;;;;;;;4903066;29;20031;-78
2022/08/16 10:22:40;;;;;;;5.10;1.20;;;;;;;;;;4920683;29;20054;-77
2022/08/16 10:25:07;;;;;;;1.67;1.05;;;;;;;;;;4920522;29;20036;-77
2022/08/16 10:27:34;;;;;;;3.05;1.25;;;;;;;;;;4921138;29;20056;-75
2022/08/16 10:30:00;;;;;;;1.73;1.23;;;;;;;;;;4903444;29;20036;-77
2022/08/16 10:32:26;;;;;;;1.98;1.10;;;;;;;;;;4903399;29;20036;-76
2022/08/16 10:34:52;;;;;;;1.75;1.10;;;;;;;;;;4902924;29;20043;-77
2022/08/16 10:37:19;;;;;;;1.40;0.90;;;;;;;;;;4903397;29;20028;-79
2022/08/16 10:39:45;;;;;;;2.08;1.15;;;;;;;;;;4920500;29;20024;-75
2022/08/16 10:42:11;;;;;;;4.03;1.20;;;;;;;;;;4903285;29;20035;-76
2022/08/16 10:44:37;;;;;;;1.60;1.10;;;;;;;;;;4903150;29;20040;-77
2022/08/16 10:47:03;;;;;;;1.88;1.10;;;;;;;;;;4903181;29;20032;-77
2022/08/16 10:49:30;;;;;;;3.90;1.30;;;;;;;;;;4903215;29;20028;-75
2022/08/16 10:51:56;;;;;;;2.65;1.20;;;;;;;;;;4926918;29;20433;-75
2022/08/16 10:54:22;;;;;;;2.53;1.38;;;;;;;;;;4934871;29;20053;-73
2022/08/16 10:56:49;;;;;;;2.13;1.40;;;;;;;;;;4919870;29;20040;-73
2022/08/16 10:59:15;;;;;;;3.00;1.42;;;;;;;;;;4929024;29;20580;-75
2022/08/16 11:01:41;;;;;;;2.53;1.25;;;;;;;;;;4938965;29;20039;-73
2022/08/16 11:04:07;;;;;;;4.80;1.10;;;;;;;;;;4937692;29;20547;-72
2022/08/16 11:06:33;;;;;;;2.83;1.80;;;;;;;;;;4921740;29;20039;-75
2022/08/16 11:09:00;;;;;;;3.90;1.73;;;;;;;;;;4920219;29;20033;-78
2022/08/16 11:11:26;;;;;;;3.78;1.40;;;;;;;;;;4918584;29;20079;-76
2022/08/16 11:13:52;;;;;;;2.50;1.40;;;;;;;;;;4919697;29;20174;-75
2022/08/16 11:16:19;;;;;;;2.35;1.40;;;;;;;;;;4919675;29;20055;-75
2022/08/16 11:18:45;;;;;;;3.72;1.30;;;;;;;;;;4929103;29;20134;-73
2022/08/16 11:21:13;;;;;;;2.35;1.40;;;;;;;;;;4918878;29;20028;-75
2022/08/16 11:23:39;;;;;;;2.42;1.50;;;;;;;;;;4918001;29;20031;-73
2022/08/16 11:26:05;;;;;;;4.03;1.50;;;;;;;;;;4919816;29;20026;-74
2022/08/16 11:28:32;;;;;;;4.80;1.67;;;;;;;;;;4902594;29;20481;-74
2022/08/16 11:30:58;;;;;;;3.13;1.65;;;;;;;;;;4918489;29;20052;-73
2022/08/16 11:33:25;;;;;;;3.15;1.42;;;;;;;;;;4919958;29;20032;-74
2022/08/16 11:35:51;;;;;;;3.45;1.88;;;;;;;;;;4902518;29;20028;-74
2022/08/16 11:38:20;;;;;;;3.80;1.65;;;;;;;;;;4919776;29;20516;-73
2022/08/16 11:40:49;;;;;;;3.17;1.55;;;;;;;;;;4902399;29;20114;-74
2022/08/16 11:43:17;;;;;;;3.40;1.73;;;;;;;;;;4919107;29;20035;-75
2022/08/16 11:45:44;;;;;;;2.65;1.77;;;;;;;;;;4919615;29;20035;-76
2022/08/16 11:48:11;;;;;;;2.95;1.52;;;;;;;;;;4902062;29;20417;-75
2022/08/16 11:50:37;;;;;;;2.65;1.70;;;;;;;;;;4902225;29;20043;-74
2022/08/16 11:53:04;;;;;;;2.75;1.90;;;;;;;;;;4902121;29;20363;-75
2022/08/16 11:55:31;;;;;;;4.07;1.70;;;;;;;;;;4902021;29;20516;-74
2022/08/16 11:57:59;;;;;;;3.65;1.70;;;;;;;;;;4919548;29;20401;-75
2022/08/16 12:00:25;;;;;;;4.30;1.95;;;;;;;;;;4920785;29;20058;-76
2022/08/16 12:02:51;;;;;;;6.30;1.80;;;;;;;;;;4938138;29;20023;-73
2022/08/16 12:05:17;;;;;;;4.15;1.90;;;;;;;;;;4937725;29;20035;-77
2022/08/16 12:07:43;;;;;;;2.90;1.88;;;;;;;;;;4920611;29;20024;-75
2022/08/16 12:10:14;;;;;;;4.57;1.80;;;;;;;;;;4938238;29;20038;-75
2022/08/16 12:12:42;;;;;;;3.47;1.80;;;;;;;;;;4937620;29;20023;-76
2022/08/16 12:15:09;;;;;;;7.15;1.90;;;;;;;;;;4937506;29;20039;-75
2022/08/16 12:17:35;;;;;;;3.38;1.98;;;;;;;;;;4937460;29;20023;-74
2022/08/16 12:20:04;;;;;;;5.35;2.03;;;;;;;;;;4920542;29;20083;-75
2022/08/16 12:22:30;;;;;;;3.55;2.10;;;;;;;;;;4920395;29;20027;-80
2022/08/16 12:24:56;;;;;;;6.65;2.13;;;;;;;;;;4920311;29;20054;-77
2022/08/16 12:27:24;;;;;;;3.65;2.10;;;;;;;;;;4937367;29;20051;-75
2022/08/16 12:29:51;;;;;;;2.95;1.60;;;;;;;;;;4921074;29;20045;-75
2022/08/16 12:32:19;;;;;;;5.70;1.58;;;;;;;;;;4938818;29;20031;-76
2022/08/16 12:34:45;;;;;;;3.72;2.20;;;;;;;;;;4920128;29;20032;-74
2022/08/16 12:37:13;;;;;;;4.22;1.77;;;;;;;;;;4920322;29;20094;-84
2022/08/16 12:39:39;;;;;;;3.75;1.90;;;;;;;;;;4937631;29;20023;-75
2022/08/16 12:42:08;;;;;;;2.55;1.60;;;;;;;;;;4919761;29;20038;-76
2022/08/16 12:44:34;;;;;;;2.35;1.42;;;;;;;;;;4920090;29;20032;-75
2022/08/16 12:49:47;;;;;;;2.40;1.40;;;;;;;;;;4937364;29;20039;-83
2022/08/16 12:52:13;;;;;;;5.93;2.25;;;;;;;;;;4920138;29;20520;-74
2022/08/16 12:54:39;;;;;;;3.35;1.75;;;;;;;;;;4919514;29;20477;-75
2022/08/16 12:57:07;;;;;;;3.72;1.75;;;;;;;;;;4919609;29;20052;-79
2022/08/16 12:59:34;;;;;;;4.75;1.92;;;;;;;;;;4951676;29;20075;-79
2022/08/16 13:02:01;;;;;;;4.28;1.70;;;;;;;;;;4936718;29;20035;-75
2022/08/16 13:04:28;;;;;;;5.60;1.80;;;;;;;;;;4951906;29;20122;-78
2022/08/16 13:06:55;;;;;;;4.03;1.60;;;;;;;;;;4936915;29;20063;-84
2022/08/16 13:09:23;;;;;;;2.53;1.50;;;;;;;;;;4937586;29;20024;-87
2022/08/16 13:12:14;;;;;;;3.70;1.80;;;;;;;;;;4920081;29;20091;-86
2022/08/16 13:14:41;;;;;;;5.07;2.05;;;;;;;;;;4953160;29;20038;-85
2022/08/16 13:17:09;;;;;;;3.55;1.60;;;;;;;;;;4937092;29;20036;-85
2022/08/16 13:19:36;;;;;;;5.03;2.25;;;;;;;;;;4951638;29;20042;-75
2022/08/16 13:22:02;;;;;;;7.47;2.35;;;;;;;;;;4951202;29;20472;-76
2022/08/16 13:24:28;;;;;;;4.85;1.77;;;;;;;;;;4936382;29;20468;-75
2022/08/16 13:26:54;;;;;;;8.45;1.83;;;;;;;;;;4951040;29;20024;-75
2022/08/16 13:29:21;;;;;;;4.05;2.40;;;;;;;;;;4951025;29;20036;-75
2022/08/16 13:31:47;;;;;;;4.88;1.83;;;;;;;;;;4936841;29;20036;-76
2022/08/16 13:34:14;;;;;;;3.38;1.80;;;;;;;;;;4950962;29;20043;-74
2022/08/16 13:36:41;;;;;;;14.02;2.17;;;;;;;;;;4950760;29;20107;-78
2022/08/16 13:39:08;;;;;;;4.03;1.80;;;;;;;;;;4936231;29;20087;-76
2022/08/16 13:41:34;;;;;;;3.63;1.98;;;;;;;;;;4936431;29;20055;-74
2022/08/16 13:44:01;;;;;;;2.65;1.77;;;;;;;;;;4919284;29;20042;-75
2022/08/16 13:46:28;;;;;;;2.85;1.67;;;;;;;;;;4919100;29;20035;-74
2022/08/16 13:48:54;;;;;;;3.42;2.00;;;;;;;;;;4919156;29;20392;-73
2022/08/16 13:51:22;;;;;;;4.55;2.08;;;;;;;;;;4936283;29;20387;-73
2022/08/16 13:53:53;;;;;;;2.97;1.80;;;;;;;;;;4951763;28;20024;-74
2022/08/16 13:56:20;;;;;;;4.35;2.03;;;;;;;;;;4955047;29;20042;-75
2022/08/16 13:58:46;;;;;;;3.88;1.90;;;;;;;;;;4954610;29;20047;-75
2022/08/16 14:01:13;;;;;;;2.30;1.52;;;;;;;;;;4954752;29;20035;-76
2022/08/16 14:03:39;;;;;;;5.80;2.17;;;;;;;;;;4939888;29;20376;-75
2022/08/16 14:06:06;;;;;;;3.47;1.65;;;;;;;;;;4954624;29;20027;-75
2022/08/16 14:08:32;;;;;;;2.42;1.55;;;;;;;;;;4954521;29;20086;-75
2022/08/16 14:10:59;;;;;;;7.05;1.80;;;;;;;;;;4954618;29;20038;-76
2022/08/16 14:13:25;;;;;;;2.55;1.80;;;;;;;;;;4922660;29;20126;-76
2022/08/16 14:15:51;;;;;;;5.70;1.73;;;;;;;;;;4923124;29;20601;-74
2022/08/16 14:18:17;;;;;;;2.70;1.63;;;;;;;;;;4939727;29;20028;-75
2022/08/16 14:20:43;;;;;;;3.08;1.90;;;;;;;;;;4954381;29;20091;-75
2022/08/16 14:23:10;;;;;;;2.42;1.35;;;;;;;;;;4954470;29;20031;-76
2022/08/16 14:25:36;;;;;;;4.10;1.80;;;;;;;;;;4940215;29;20047;-75
2022/08/16 14:28:02;;;;;;;3.17;1.80;;;;;;;;;;4939113;29;20027;-73
2022/08/16 14:30:29;;;;;;;5.00;1.90;;;;;;;;;;4939603;29;20491;-75
2022/08/16 14:32:55;;;;;;;2.65;1.70;;;;;;;;;;4939983;29;20106;-74
2022/08/16 14:35:26;;;;;;;2.60;1.55;;;;;;;;;;4922268;29;20080;-76
2022/08/16 14:37:52;;;;;;;2.20;1.60;;;;;;;;;;4922089;29;20036;-75
2022/08/16 14:40:19;;;;;;;2.70;1.80;;;;;;;;;;4922248;29;20472;-76
2022/08/16 14:42:46;;;;;;;4.60;1.98;;;;;;;;;;4939237;29;20100;-76